Alta, Utah
Current Conditions -  °F | °C
As of 2:55 AM on Sunday 23 Nov 2014 (Local Time) from K36U Reporting Station
Light Snow Light Snow  
Wind Chill: -5°   Ceiling: 3900
Heat Index:   Visibility: 10mi
Dew Point: -4°   Wind: 12mph
Humidity: 75%   Direction: 240°WSW
Pressure: 29.93"   Gusts: 17mph
Location:  40.5907°N, 111.707°W
Report Text: K36U 230955Z AUTO 24010G15KT 10SM -SN SCT026 BKN039 OVC055 00/M04 A2993 RMK AO2
Loading
Personal Weather Stations






























Interactive Weather Map New forecast layout! Learn more

10-Day Weather Forecast

Advertisements
Track Severe Weather on mobile